sensor_id;sensor_type;location;lat;lon;timestamp;pressure;altitude;pressure_sealevel;temperature;humidity
15529;BME280;7866;52.280;9.500;2022-12-18T00:04:18;101685.72;;;-2.66;76.52
15529;BME280;7866;52.280;9.500;2022-12-18T00:09:22;101688.03;;;-2.57;75.49
15529;BME280;7866;52.280;9.500;2022-12-18T00:14:24;101704.34;;;-2.49;74.74
15529;BME280;7866;52.280;9.500;2022-12-18T00:19:27;101699.34;;;-2.55;74.49
15529;BME280;7866;52.280;9.500;2022-12-18T00:24:30;101699.13;;;-2.49;73.36
15529;BME280;7866;52.280;9.500;2022-12-18T00:29:32;101694.97;;;-2.56;73.29
15529;BME280;7866;52.280;9.500;2022-12-18T00:34:34;101688.84;;;-2.55;74.11
15529;BME280;7866;52.280;9.500;2022-12-18T00:39:37;101705.91;;;-2.43;74.53
15529;BME280;7866;52.280;9.500;2022-12-18T00:44:38;101693.88;;;-2.49;74.30
15529;BME280;7866;52.280;9.500;2022-12-18T00:49:40;101698.94;;;-2.19;73.39
15529;BME280;7866;52.280;9.500;2022-12-18T00:54:43;101699.56;;;-2.11;73.84
15529;BME280;7866;52.280;9.500;2022-12-18T00:59:44;101705.78;;;-2.39;73.12
15529;BME280;7866;52.280;9.500;2022-12-18T01:04:48;101700.59;;;-2.67;73.09
15529;BME280;7866;52.280;9.500;2022-12-18T01:09:52;101701.97;;;-2.55;73.62
15529;BME280;7866;52.280;9.500;2022-12-18T01:14:53;101703.47;;;-2.75;73.90
15529;BME280;7866;52.280;9.500;2022-12-18T01:19:55;101707.28;;;-2.85;74.56
15529;BME280;7866;52.280;9.500;2022-12-18T01:24:58;101687.75;;;-2.75;74.87
15529;BME280;7866;52.280;9.500;2022-12-18T01:29:59;101683.78;;;-2.61;75.00
15529;BME280;7866;52.280;9.500;2022-12-18T01:35:01;101683.81;;;-2.36;73.86
15529;BME280;7866;52.280;9.500;2022-12-18T01:40:06;101683.56;;;-2.05;73.64
15529;BME280;7866;52.280;9.500;2022-12-18T01:45:23;101685.69;;;-2.15;73.24
15529;BME280;7866;52.280;9.500;2022-12-18T01:50:31;101687.41;;;-1.90;72.59
15529;BME280;7866;52.280;9.500;2022-12-18T01:55:38;101700.28;;;-1.83;71.80
15529;BME280;7866;52.280;9.500;2022-12-18T02:00:43;101708.31;;;-2.12;72.06
15529;BME280;7866;52.280;9.500;2022-12-18T02:05:50;101712.25;;;-1.99;72.65
15529;BME280;7866;52.280;9.500;2022-12-18T02:11:05;101721.56;;;-2.15;72.31
15529;BME280;7866;52.280;9.500;2022-12-18T02:16:15;101723.22;;;-2.38;73.13
15529;BME280;7866;52.280;9.500;2022-12-18T02:21:28;101709.56;;;-2.22;74.05
15529;BME280;7866;52.280;9.500;2022-12-18T02:26:36;101722.84;;;-2.02;72.50
15529;BME280;7866;52.280;9.500;2022-12-18T02:31:43;101728.00;;;-1.99;72.23
15529;BME280;7866;52.280;9.500;2022-12-18T02:36:46;101707.66;;;-2.44;72.30
15529;BME280;7866;52.280;9.500;2022-12-18T02:41:51;101697.41;;;-2.50;72.98
15529;BME280;7866;52.280;9.500;2022-12-18T02:46:53;101701.75;;;-2.76;74.01
15529;BME280;7866;52.280;9.500;2022-12-18T02:52:02;101708.81;;;-2.78;74.59
15529;BME280;7866;52.280;9.500;2022-12-18T02:57:14;101704.41;;;-2.51;74.52
15529;BME280;7866;52.280;9.500;2022-12-18T03:02:44;101692.91;;;-2.46;75.00
15529;BME280;7866;52.280;9.500;2022-12-18T03:07:55;101690.28;;;-2.46;73.51
15529;BME280;7866;52.280;9.500;2022-12-18T03:13:02;101676.09;;;-2.41;73.83
15529;BME280;7866;52.280;9.500;2022-12-18T03:18:09;101675.94;;;-2.36;73.95
15529;BME280;7866;52.280;9.500;2022-12-18T03:23:15;101669.50;;;-2.28;73.16
15529;BME280;7866;52.280;9.500;2022-12-18T03:28:20;101675.50;;;-2.49;73.66
15529;BME280;7866;52.280;9.500;2022-12-18T03:33:26;101684.63;;;-2.34;73.08
15529;BME280;7866;52.280;9.500;2022-12-18T03:38:30;101694.78;;;-2.50;73.60
15529;BME280;7866;52.280;9.500;2022-12-18T03:43:42;101688.53;;;-2.46;74.35
15529;BME280;7866;52.280;9.500;2022-12-18T03:48:48;101690.84;;;-2.63;73.20
15529;BME280;7866;52.280;9.500;2022-12-18T03:53:55;101693.00;;;-2.50;74.43
15529;BME280;7866;52.280;9.500;2022-12-18T03:59:02;101682.78;;;-2.84;75.03
15529;BME280;7866;52.280;9.500;2022-12-18T04:04:05;101683.53;;;-2.80;74.50
15529;BME280;7866;52.280;9.500;2022-12-18T04:09:08;101684.53;;;-2.83;74.84
15529;BME280;7866;52.280;9.500;2022-12-18T04:14:11;101678.66;;;-2.64;74.74
15529;BME280;7866;52.280;9.500;2022-12-18T04:19:13;101673.63;;;-2.97;73.77
15529;BME280;7866;52.280;9.500;2022-12-18T04:24:15;101691.22;;;-2.74;75.15
15529;BME280;7866;52.280;9.500;2022-12-18T04:29:18;101676.69;;;-2.84;74.80
15529;BME280;7866;52.280;9.500;2022-12-18T04:34:20;101679.78;;;-2.98;74.64
15529;BME280;7866;52.280;9.500;2022-12-18T04:39:21;101691.97;;;-2.97;74.84
15529;BME280;7866;52.280;9.500;2022-12-18T04:44:24;101695.97;;;-3.13;74.35
15529;BME280;7866;52.280;9.500;2022-12-18T04:49:26;101698.94;;;-3.24;75.32
15529;BME280;7866;52.280;9.500;2022-12-18T04:54:30;101676.44;;;-3.59;75.02
15529;BME280;7866;52.280;9.500;2022-12-18T04:59:33;101665.31;;;-3.38;76.54
15529;BME280;7866;52.280;9.500;2022-12-18T05:04:34;101668.69;;;-3.06;75.94
15529;BME280;7866;52.280;9.500;2022-12-18T05:09:36;101690.03;;;-2.39;75.72
15529;BME280;7866;52.280;9.500;2022-12-18T05:14:39;101691.03;;;-3.23;73.53
15529;BME280;7866;52.280;9.500;2022-12-18T05:19:40;101693.06;;;-3.32;75.72
15529;BME280;7866;52.280;9.500;2022-12-18T05:24:42;101688.19;;;-2.62;75.50
15529;BME280;7866;52.280;9.500;2022-12-18T05:29:45;101683.19;;;-2.43;74.89
15529;BME280;7866;52.280;9.500;2022-12-18T05:34:47;101681.00;;;-2.32;74.29
15529;BME280;7866;52.280;9.500;2022-12-18T05:39:49;101692.28;;;-2.03;74.48
15529;BME280;7866;52.280;9.500;2022-12-18T05:44:52;101699.22;;;-2.02;73.96
15529;BME280;7866;52.280;9.500;2022-12-18T05:49:54;101705.88;;;-2.17;72.68
15529;BME280;7866;52.280;9.500;2022-12-18T05:54:55;101706.56;;;-2.63;73.75
15529;BME280;7866;52.280;9.500;2022-12-18T05:59:58;101707.53;;;-2.14;73.87
15529;BME280;7866;52.280;9.500;2022-12-18T06:05:00;101705.75;;;-2.14;74.79
15529;BME280;7866;52.280;9.500;2022-12-18T06:10:02;101702.75;;;-2.03;74.37
15529;BME280;7866;52.280;9.500;2022-12-18T06:15:06;101703.38;;;-1.96;73.57
15529;BME280;7866;52.280;9.500;2022-12-18T06:20:09;101709.44;;;-1.94;73.32
15529;BME280;7866;52.280;9.500;2022-12-18T06:25:11;101690.44;;;-2.01;74.23
15529;BME280;7866;52.280;9.500;2022-12-18T06:30:14;101704.41;;;-2.01;74.29
15529;BME280;7866;52.280;9.500;2022-12-18T06:35:16;101700.72;;;-1.95;73.97
15529;BME280;7866;52.280;9.500;2022-12-18T06:45:22;101711.50;;;-2.03;73.28
15529;BME280;7866;52.280;9.500;2022-12-18T06:50:24;101721.06;;;-2.02;72.86
15529;BME280;7866;52.280;9.500;2022-12-18T06:55:26;101732.19;;;-2.20;73.40
15529;BME280;7866;52.280;9.500;2022-12-18T07:00:29;101720.00;;;-2.21;73.00
15529;BME280;7866;52.280;9.500;2022-12-18T07:05:30;101728.53;;;-2.14;73.74
15529;BME280;7866;52.280;9.500;2022-12-18T07:10:32;101736.59;;;-2.20;73.89
15529;BME280;7866;52.280;9.500;2022-12-18T07:15:35;101755.03;;;-2.22;73.59
15529;BME280;7866;52.280;9.500;2022-12-18T07:20:36;101758.66;;;-2.26;73.30
15529;BME280;7866;52.280;9.500;2022-12-18T07:25:38;101775.16;;;-2.22;73.16
15529;BME280;7866;52.280;9.500;2022-12-18T07:30:42;101774.44;;;-2.28;72.63
15529;BME280;7866;52.280;9.500;2022-12-18T07:35:43;101774.00;;;-2.40;73.25
15529;BME280;7866;52.280;9.500;2022-12-18T07:40:45;101770.38;;;-2.36;72.95
15529;BME280;7866;52.280;9.500;2022-12-18T07:45:50;101761.50;;;-2.32;73.87
15529;BME280;7866;52.280;9.500;2022-12-18T07:50:52;101769.41;;;-2.60;71.62
15529;BME280;7866;52.280;9.500;2022-12-18T07:55:55;101765.88;;;-3.14;73.42
15529;BME280;7866;52.280;9.500;2022-12-18T08:01:03;101759.34;;;-3.01;73.65
15529;BME280;7866;52.280;9.500;2022-12-18T08:06:07;101761.78;;;-3.24;74.70
15529;BME280;7866;52.280;9.500;2022-12-18T08:11:09;101770.72;;;-3.31;74.73
15529;BME280;7866;52.280;9.500;2022-12-18T08:16:12;101758.91;;;-3.44;74.99
15529;BME280;7866;52.280;9.500;2022-12-18T08:21:15;101757.44;;;-3.53;75.50
15529;BME280;7866;52.280;9.500;2022-12-18T08:26:19;101756.84;;;-3.63;75.64
15529;BME280;7866;52.280;9.500;2022-12-18T08:31:22;101754.53;;;-3.44;76.16
15529;BME280;7866;52.280;9.500;2022-12-18T08:36:25;101746.78;;;-3.47;76.13
15529;BME280;7866;52.280;9.500;2022-12-18T08:41:26;101737.38;;;-3.54;75.92
15529;BME280;7866;52.280;9.500;2022-12-18T08:46:34;101749.28;;;-3.42;76.35
15529;BME280;7866;52.280;9.500;2022-12-18T08:51:36;101755.34;;;-3.42;76.42
15529;BME280;7866;52.280;9.500;2022-12-18T08:56:38;101752.75;;;-3.42;76.07
15529;BME280;7866;52.280;9.500;2022-12-18T09:01:41;101743.75;;;-3.33;76.14
15529;BME280;7866;52.280;9.500;2022-12-18T09:06:42;101746.44;;;-3.36;76.49
15529;BME280;7866;52.280;9.500;2022-12-18T09:11:44;101734.56;;;-3.48;76.51
15529;BME280;7866;52.280;9.500;2022-12-18T09:16:48;101738.50;;;-3.33;77.04
15529;BME280;7866;52.280;9.500;2022-12-18T09:21:49;101725.03;;;-3.21;76.99
15529;BME280;7866;52.280;9.500;2022-12-18T09:26:53;101715.09;;;-3.10;76.58
15529;BME280;7866;52.280;9.500;2022-12-18T09:31:56;101708.41;;;-2.65;76.77
15529;BME280;7866;52.280;9.500;2022-12-18T09:36:58;101713.91;;;-2.46;75.40
15529;BME280;7866;52.280;9.500;2022-12-18T09:41:59;101720.84;;;-2.20;74.37
15529;BME280;7866;52.280;9.500;2022-12-18T09:47:12;101724.19;;;-1.90;72.93
15529;BME280;7866;52.280;9.500;2022-12-18T09:52:21;101741.88;;;-1.49;71.44
15529;BME280;7866;52.280;9.500;2022-12-18T09:57:25;101738.22;;;-1.44;71.53
15529;BME280;7866;52.280;9.500;2022-12-18T10:02:30;101737.19;;;-1.40;70.34
15529;BME280;7866;52.280;9.500;2022-12-18T10:07:42;101738.03;;;-1.16;70.25
15529;BME280;7866;52.280;9.500;2022-12-18T10:12:54;101732.16;;;-1.01;68.60
15529;BME280;7866;52.280;9.500;2022-12-18T10:18:06;101734.50;;;-0.93;67.60
15529;BME280;7866;52.280;9.500;2022-12-18T10:23:19;101736.16;;;-0.91;67.79
15529;BME280;7866;52.280;9.500;2022-12-18T10:28:23;101725.75;;;-0.94;67.28
15529;BME280;7866;52.280;9.500;2022-12-18T10:33:30;101726.69;;;-0.95;67.27
15529;BME280;7866;52.280;9.500;2022-12-18T10:38:32;101742.88;;;-0.84;68.08
15529;BME280;7866;52.280;9.500;2022-12-18T10:43:35;101746.34;;;-0.61;68.13
15529;BME280;7866;52.280;9.500;2022-12-18T10:48:47;101736.31;;;-0.52;68.82
15529;BME280;7866;52.280;9.500;2022-12-18T10:53:57;101722.81;;;-0.44;68.53
15529;BME280;7866;52.280;9.500;2022-12-18T10:59:02;101717.19;;;-0.35;67.97
15529;BME280;7866;52.280;9.500;2022-12-18T11:04:09;101718.16;;;-0.37;68.77
15529;BME280;7866;52.280;9.500;2022-12-18T11:09:20;101717.06;;;-0.32;69.88
15529;BME280;7866;52.280;9.500;2022-12-18T11:14:24;101704.47;;;-0.25;69.33
15529;BME280;7866;52.280;9.500;2022-12-18T11:19:32;101715.84;;;-0.04;69.83
15529;BME280;7866;52.280;9.500;2022-12-18T11:24:35;101713.16;;;-0.23;69.02
15529;BME280;7866;52.280;9.500;2022-12-18T11:29:38;101696.50;;;-0.44;67.64
15529;BME280;7866;52.280;9.500;2022-12-18T11:34:44;101684.94;;;-0.40;67.90
15529;BME280;7866;52.280;9.500;2022-12-18T11:39:51;101687.38;;;-0.35;67.56
15529;BME280;7866;52.280;9.500;2022-12-18T11:44:58;101659.91;;;-0.30;67.97
15529;BME280;7866;52.280;9.500;2022-12-18T11:50:03;101655.63;;;-0.32;66.79
15529;BME280;7866;52.280;9.500;2022-12-18T11:55:12;101648.78;;;-0.36;68.11
15529;BME280;7866;52.280;9.500;2022-12-18T12:00:19;101639.13;;;-0.56;68.37
15529;BME280;7866;52.280;9.500;2022-12-18T12:05:31;101637.56;;;-0.60;69.24
15529;BME280;7866;52.280;9.500;2022-12-18T12:10:49;101640.25;;;-0.62;69.81
15529;BME280;7866;52.280;9.500;2022-12-18T12:16:04;101639.28;;;-0.59;69.25
15529;BME280;7866;52.280;9.500;2022-12-18T12:21:15;101629.66;;;-0.60;70.20
15529;BME280;7866;52.280;9.500;2022-12-18T12:26:25;101620.88;;;-0.59;68.64
15529;BME280;7866;52.280;9.500;2022-12-18T12:31:44;101602.25;;;-0.55;68.79
15529;BME280;7866;52.280;9.500;2022-12-18T12:37:02;101589.81;;;-0.51;69.18
15529;BME280;7866;52.280;9.500;2022-12-18T12:42:15;101577.44;;;-0.49;68.70
15529;BME280;7866;52.280;9.500;2022-12-18T12:47:38;101580.88;;;-0.47;67.98
15529;BME280;7866;52.280;9.500;2022-12-18T12:52:45;101570.91;;;-0.40;68.28
15529;BME280;7866;52.280;9.500;2022-12-18T12:57:55;101576.13;;;-0.39;67.48
15529;BME280;7866;52.280;9.500;2022-12-18T13:03:04;101575.44;;;-0.44;67.46
15529;BME280;7866;52.280;9.500;2022-12-18T13:08:22;101565.63;;;-0.40;67.68
15529;BME280;7866;52.280;9.500;2022-12-18T13:13:24;101572.34;;;-0.33;66.77
15529;BME280;7866;52.280;9.500;2022-12-18T13:18:26;101567.94;;;-0.33;66.70
15529;BME280;7866;52.280;9.500;2022-12-18T13:23:40;101572.47;;;-0.36;65.81
15529;BME280;7866;52.280;9.500;2022-12-18T13:28:53;101581.38;;;-0.39;66.47
15529;BME280;7866;52.280;9.500;2022-12-18T13:34:11;101569.91;;;-0.38;66.48
15529;BME280;7866;52.280;9.500;2022-12-18T13:39:34;101566.34;;;-0.37;66.67
15529;BME280;7866;52.280;9.500;2022-12-18T13:44:36;101557.69;;;-0.39;66.67
15529;BME280;7866;52.280;9.500;2022-12-18T13:49:42;101539.28;;;-0.39;66.26
15529;BME280;7866;52.280;9.500;2022-12-18T13:54:49;101546.50;;;-0.44;68.45
15529;BME280;7866;52.280;9.500;2022-12-18T13:59:52;101536.19;;;-0.48;68.44
15529;BME280;7866;52.280;9.500;2022-12-18T14:04:54;101505.66;;;-0.53;68.55
15529;BME280;7866;52.280;9.500;2022-12-18T14:09:58;101523.38;;;-0.56;69.00
15529;BME280;7866;52.280;9.500;2022-12-18T14:15:02;101503.38;;;-0.60;69.20
15529;BME280;7866;52.280;9.500;2022-12-18T14:20:12;101482.56;;;-0.65;69.72
15529;BME280;7866;52.280;9.500;2022-12-18T14:25:18;101474.53;;;-0.62;69.78
15529;BME280;7866;52.280;9.500;2022-12-18T14:30:28;101475.25;;;-0.58;68.14
15529;BME280;7866;52.280;9.500;2022-12-18T14:35:30;101474.78;;;-0.68;68.91
15529;BME280;7866;52.280;9.500;2022-12-18T14:40:34;101472.53;;;-0.76;69.13
15529;BME280;7866;52.280;9.500;2022-12-18T14:45:39;101482.13;;;-0.75;68.78
15529;BME280;7866;52.280;9.500;2022-12-18T14:50:42;101474.28;;;-0.76;68.09
15529;BME280;7866;52.280;9.500;2022-12-18T14:55:46;101468.75;;;-0.70;68.16
15529;BME280;7866;52.280;9.500;2022-12-18T15:00:49;101459.78;;;-0.85;68.89
15529;BME280;7866;52.280;9.500;2022-12-18T15:05:51;101459.66;;;-0.82;68.44
15529;BME280;7866;52.280;9.500;2022-12-18T15:10:54;101464.38;;;-0.90;68.88
15529;BME280;7866;52.280;9.500;2022-12-18T15:15:58;101449.59;;;-0.92;70.26
15529;BME280;7866;52.280;9.500;2022-12-18T15:21:08;101456.25;;;-0.84;69.01
15529;BME280;7866;52.280;9.500;2022-12-18T15:26:13;101437.84;;;-0.84;68.27
15529;BME280;7866;52.280;9.500;2022-12-18T15:31:23;101443.91;;;-1.02;69.24
15529;BME280;7866;52.280;9.500;2022-12-18T15:36:29;101430.13;;;-1.07;69.81
15529;BME280;7866;52.280;9.500;2022-12-18T15:41:33;101426.09;;;-0.95;69.19
15529;BME280;7866;52.280;9.500;2022-12-18T15:46:35;101423.09;;;-0.88;68.08
15529;BME280;7866;52.280;9.500;2022-12-18T15:51:38;101410.09;;;-0.91;67.89
15529;BME280;7866;52.280;9.500;2022-12-18T15:56:41;101388.56;;;-0.80;66.13
15529;BME280;7866;52.280;9.500;2022-12-18T16:02:00;101379.75;;;-0.98;67.01
15529;BME280;7866;52.280;9.500;2022-12-18T16:07:02;101386.16;;;-0.85;66.73
15529;BME280;7866;52.280;9.500;2022-12-18T16:12:06;101365.59;;;-0.77;65.76
15529;BME280;7866;52.280;9.500;2022-12-18T16:17:12;101397.16;;;-0.77;66.97
15529;BME280;7866;52.280;9.500;2022-12-18T16:22:19;101382.53;;;-0.63;65.74
15529;BME280;7866;52.280;9.500;2022-12-18T16:27:24;101366.94;;;-0.68;66.00
15529;BME280;7866;52.280;9.500;2022-12-18T16:32:25;101351.47;;;-0.74;65.91
15529;BME280;7866;52.280;9.500;2022-12-18T16:37:27;101341.44;;;-0.66;63.63
15529;BME280;7866;52.280;9.500;2022-12-18T16:42:30;101342.78;;;-0.57;65.03
15529;BME280;7866;52.280;9.500;2022-12-18T16:47:32;101338.22;;;-0.54;62.88
15529;BME280;7866;52.280;9.500;2022-12-18T16:52:34;101331.53;;;-0.42;63.34
15529;BME280;7866;52.280;9.500;2022-12-18T16:57:37;101324.25;;;-0.37;62.58
15529;BME280;7866;52.280;9.500;2022-12-18T17:02:39;101324.72;;;-0.29;61.68
15529;BME280;7866;52.280;9.500;2022-12-18T17:07:40;101315.75;;;-0.25;62.35
15529;BME280;7866;52.280;9.500;2022-12-18T17:12:44;101314.22;;;-0.11;61.02
15529;BME280;7866;52.280;9.500;2022-12-18T17:17:46;101313.22;;;0.09;58.58
15529;BME280;7866;52.280;9.500;2022-12-18T17:22:47;101299.72;;;0.15;59.92
15529;BME280;7866;52.280;9.500;2022-12-18T17:27:50;101282.72;;;0.38;57.93
15529;BME280;7866;52.280;9.500;2022-12-18T17:32:52;101285.28;;;0.39;57.16
15529;BME280;7866;52.280;9.500;2022-12-18T17:37:54;101280.13;;;0.54;57.58
15529;BME280;7866;52.280;9.500;2022-12-18T17:42:57;101276.81;;;0.50;57.70
15529;BME280;7866;52.280;9.500;2022-12-18T17:47:59;101291.97;;;0.62;57.82
15529;BME280;7866;52.280;9.500;2022-12-18T17:53:01;101271.81;;;0.61;59.13
15529;BME280;7866;52.280;9.500;2022-12-18T17:58:04;101271.16;;;0.73;56.73
15529;BME280;7866;52.280;9.500;2022-12-18T18:03:05;101257.41;;;0.51;59.21
15529;BME280;7866;52.280;9.500;2022-12-18T18:08:07;101242.75;;;0.30;60.40
15529;BME280;7866;52.280;9.500;2022-12-18T18:13:18;101230.19;;;0.35;57.18
15529;BME280;7866;52.280;9.500;2022-12-18T18:18:37;101232.34;;;0.44;57.78
15529;BME280;7866;52.280;9.500;2022-12-18T18:23:39;101225.03;;;0.49;59.99
15529;BME280;7866;52.280;9.500;2022-12-18T18:28:42;101205.84;;;0.63;59.07
15529;BME280;7866;52.280;9.500;2022-12-18T18:33:44;101197.19;;;0.61;58.90
15529;BME280;7866;52.280;9.500;2022-12-18T18:38:45;101172.00;;;0.55;59.59
15529;BME280;7866;52.280;9.500;2022-12-18T18:43:53;101177.38;;;1.15;55.20
15529;BME280;7866;52.280;9.500;2022-12-18T18:48:55;101176.16;;;0.91;58.46
15529;BME280;7866;52.280;9.500;2022-12-18T18:53:58;101169.44;;;0.85;55.03
15529;BME280;7866;52.280;9.500;2022-12-18T18:59:01;101148.66;;;0.95;55.07
15529;BME280;7866;52.280;9.500;2022-12-18T19:04:03;101148.28;;;1.17;56.11
15529;BME280;7866;52.280;9.500;2022-12-18T19:09:05;101161.75;;;1.12;56.59
15529;BME280;7866;52.280;9.500;2022-12-18T19:14:10;101156.81;;;1.06;54.80
15529;BME280;7866;52.280;9.500;2022-12-18T19:19:12;101169.06;;;0.91;55.87
15529;BME280;7866;52.280;9.500;2022-12-18T19:24:16;101139.84;;;0.96;56.62
15529;BME280;7866;52.280;9.500;2022-12-18T19:29:20;101141.09;;;1.05;58.19
15529;BME280;7866;52.280;9.500;2022-12-18T19:34:23;101131.31;;;0.91;54.30
15529;BME280;7866;52.280;9.500;2022-12-18T19:39:25;101134.56;;;0.96;55.45
15529;BME280;7866;52.280;9.500;2022-12-18T19:44:27;101132.50;;;1.01;57.58
15529;BME280;7866;52.280;9.500;2022-12-18T19:49:29;101137.94;;;0.98;55.46
15529;BME280;7866;52.280;9.500;2022-12-18T19:54:31;101122.66;;;0.89;58.15
15529;BME280;7866;52.280;9.500;2022-12-18T19:59:35;101104.19;;;0.89;57.86
15529;BME280;7866;52.280;9.500;2022-12-18T20:04:36;101081.16;;;0.92;55.82
15529;BME280;7866;52.280;9.500;2022-12-18T20:09:38;101053.38;;;1.01;57.70
15529;BME280;7866;52.280;9.500;2022-12-18T20:14:41;101107.28;;;1.11;59.59
15529;BME280;7866;52.280;9.500;2022-12-18T20:19:43;101052.47;;;0.86;58.91
15529;BME280;7866;52.280;9.500;2022-12-18T20:24:44;101068.00;;;0.77;59.62
15529;BME280;7866;52.280;9.500;2022-12-18T20:29:47;101061.88;;;0.76;60.26
15529;BME280;7866;52.280;9.500;2022-12-18T20:34:49;101055.69;;;0.61;61.87
15529;BME280;7866;52.280;9.500;2022-12-18T20:39:51;101043.97;;;0.51;61.36
15529;BME280;7866;52.280;9.500;2022-12-18T20:44:54;101051.72;;;0.54;61.81
15529;BME280;7866;52.280;9.500;2022-12-18T20:49:55;101040.84;;;0.44;61.73
15529;BME280;7866;52.280;9.500;2022-12-18T20:54:57;101043.13;;;0.51;63.31
15529;BME280;7866;52.280;9.500;2022-12-18T21:00:09;101042.09;;;0.53;63.53
15529;BME280;7866;52.280;9.500;2022-12-18T21:05:11;101046.03;;;0.46;63.84
15529;BME280;7866;52.280;9.500;2022-12-18T21:10:13;101055.56;;;0.48;63.71
15529;BME280;7866;52.280;9.500;2022-12-18T21:15:16;101032.59;;;0.35;63.80
15529;BME280;7866;52.280;9.500;2022-12-18T21:20:18;101051.22;;;0.32;65.45
15529;BME280;7866;52.280;9.500;2022-12-18T21:25:20;101017.88;;;0.46;64.92
15529;BME280;7866;52.280;9.500;2022-12-18T21:30:23;101045.06;;;0.47;65.63
15529;BME280;7866;52.280;9.500;2022-12-18T21:35:25;101026.63;;;0.47;66.11
15529;BME280;7866;52.280;9.500;2022-12-18T21:40:27;101041.94;;;0.56;66.58
15529;BME280;7866;52.280;9.500;2022-12-18T21:45:30;101041.75;;;0.59;66.77
15529;BME280;7866;52.280;9.500;2022-12-18T21:50:32;101036.56;;;0.58;66.33
15529;BME280;7866;52.280;9.500;2022-12-18T21:55:33;101027.94;;;0.70;66.44
15529;BME280;7866;52.280;9.500;2022-12-18T22:00:36;101014.50;;;0.74;67.04
15529;BME280;7866;52.280;9.500;2022-12-18T22:05:38;101017.72;;;0.80;66.42
15529;BME280;7866;52.280;9.500;2022-12-18T22:10:40;101038.22;;;0.74;67.33
15529;BME280;7866;52.280;9.500;2022-12-18T22:15:44;101010.00;;;0.77;66.99
15529;BME280;7866;52.280;9.500;2022-12-18T22:20:46;100995.88;;;0.78;67.13
15529;BME280;7866;52.280;9.500;2022-12-18T22:25:47;100994.75;;;0.82;68.48
15529;BME280;7866;52.280;9.500;2022-12-18T22:30:50;100993.47;;;0.89;68.01
15529;BME280;7866;52.280;9.500;2022-12-18T22:35:52;101009.56;;;0.84;68.66
15529;BME280;7866;52.280;9.500;2022-12-18T22:40:54;100986.28;;;0.91;68.21
15529;BME280;7866;52.280;9.500;2022-12-18T22:45:57;101002.22;;;0.89;68.48
15529;BME280;7866;52.280;9.500;2022-12-18T22:51:02;100978.09;;;0.95;67.59
15529;BME280;7866;52.280;9.500;2022-12-18T22:56:04;100975.00;;;0.89;68.15
15529;BME280;7866;52.280;9.500;2022-12-18T23:01:16;100974.41;;;0.84;68.10
15529;BME280;7866;52.280;9.500;2022-12-18T23:06:20;100976.41;;;0.80;68.34
15529;BME280;7866;52.280;9.500;2022-12-18T23:11:22;100975.81;;;0.75;68.55
15529;BME280;7866;52.280;9.500;2022-12-18T23:16:27;100969.97;;;0.70;69.80
15529;BME280;7866;52.280;9.500;2022-12-18T23:21:28;100983.03;;;0.71;69.40
15529;BME280;7866;52.280;9.500;2022-12-18T23:26:30;100972.81;;;0.81;69.38
15529;BME280;7866;52.280;9.500;2022-12-18T23:31:35;100971.75;;;0.84;69.41
15529;BME280;7866;52.280;9.500;2022-12-18T23:36:37;100961.03;;;0.87;68.83
15529;BME280;7866;52.280;9.500;2022-12-18T23:41:39;100937.97;;;0.90;69.58
15529;BME280;7866;52.280;9.500;2022-12-18T23:46:42;100932.44;;;0.95;69.67
15529;BME280;7866;52.280;9.500;2022-12-18T23:51:46;100952.41;;;0.85;69.81
15529;BME280;7866;52.280;9.500;2022-12-18T23:56:48;100950.31;;;0.90;70.87
